sensor_id;sensor_type;location;lat;lon;timestamp;temperature;humidity
68746;SHT31;65497;45.454;11.064;2022-12-07T00:01:22;5.80;80.78
68746;SHT31;65497;45.454;11.064;2022-12-07T00:03:59;5.83;80.78
68746;SHT31;65497;45.454;11.064;2022-12-07T00:06:34;5.82;80.61
68746;SHT31;65497;45.454;11.064;2022-12-07T00:09:11;5.78;80.49
68746;SHT31;65497;45.454;11.064;2022-12-07T00:11:47;5.76;80.47
68746;SHT31;65497;45.454;11.064;2022-12-07T00:14:22;5.69;80.28
68746;SHT31;65497;45.454;11.064;2022-12-07T00:16:55;5.52;80.16
68746;SHT31;65497;45.454;11.064;2022-12-07T00:19:27;5.41;80.51
68746;SHT31;65497;45.454;11.064;2022-12-07T00:22:01;5.38;80.38
68746;SHT31;65497;45.454;11.064;2022-12-07T00:24:34;5.39;80.32
68746;SHT31;65497;45.454;11.064;2022-12-07T00:27:08;5.44;79.97
68746;SHT31;65497;45.454;11.064;2022-12-07T00:29:41;5.47;79.34
68746;SHT31;65497;45.454;11.064;2022-12-07T00:32:14;5.45;78.68
68746;SHT31;65497;45.454;11.064;2022-12-07T00:34:47;5.38;77.93
68746;SHT31;65497;45.454;11.064;2022-12-07T00:37:20;5.27;77.47
68746;SHT31;65497;45.454;11.064;2022-12-07T00:39:53;5.14;77.11
68746;SHT31;65497;45.454;11.064;2022-12-07T00:42:27;5.04;77.12
68746;SHT31;65497;45.454;11.064;2022-12-07T00:45:00;4.93;76.80
68746;SHT31;65497;45.454;11.064;2022-12-07T00:47:34;4.77;78.03
68746;SHT31;65497;45.454;11.064;2022-12-07T00:50:08;4.48;79.08
68746;SHT31;65497;45.454;11.064;2022-12-07T00:52:41;4.26;80.00
68746;SHT31;65497;45.454;11.064;2022-12-07T00:55:14;4.22;80.07
68746;SHT31;65497;45.454;11.064;2022-12-07T00:57:47;4.17;80.24
68746;SHT31;65497;45.454;11.064;2022-12-07T01:00:20;4.13;80.81
68746;SHT31;65497;45.454;11.064;2022-12-07T01:02:53;4.09;80.91
68746;SHT31;65497;45.454;11.064;2022-12-07T01:05:26;4.06;81.21
68746;SHT31;65497;45.454;11.064;2022-12-07T01:07:59;4.06;81.62
68746;SHT31;65497;45.454;11.064;2022-12-07T01:10:33;4.06;82.02
68746;SHT31;65497;45.454;11.064;2022-12-07T01:13:06;4.08;82.37
68746;SHT31;65497;45.454;11.064;2022-12-07T01:15:40;4.10;82.42
68746;SHT31;65497;45.454;11.064;2022-12-07T01:18:13;4.13;82.79
68746;SHT31;65497;45.454;11.064;2022-12-07T01:20:46;4.16;82.84
68746;SHT31;65497;45.454;11.064;2022-12-07T01:23:33;4.15;82.77
68746;SHT31;65497;45.454;11.064;2022-12-07T01:26:09;4.15;82.96
68746;SHT31;65497;45.454;11.064;2022-12-07T01:28:44;4.11;83.18
68746;SHT31;65497;45.454;11.064;2022-12-07T01:31:18;4.06;83.23
68746;SHT31;65497;45.454;11.064;2022-12-07T01:33:54;4.06;83.50
68746;SHT31;65497;45.454;11.064;2022-12-07T01:36:29;4.10;83.43
68746;SHT31;65497;45.454;11.064;2022-12-07T01:39:05;4.14;83.31
68746;SHT31;65497;45.454;11.064;2022-12-07T01:41:40;4.14;83.43
68746;SHT31;65497;45.454;11.064;2022-12-07T01:44:15;4.14;83.46
68746;SHT31;65497;45.454;11.064;2022-12-07T01:46:51;4.15;83.50
68746;SHT31;65497;45.454;11.064;2022-12-07T01:49:27;4.14;83.27
68746;SHT31;65497;45.454;11.064;2022-12-07T01:52:08;4.11;83.13
68746;SHT31;65497;45.454;11.064;2022-12-07T01:54:47;4.11;83.08
68746;SHT31;65497;45.454;11.064;2022-12-07T01:57:27;4.11;83.10
68746;SHT31;65497;45.454;11.064;2022-12-07T02:00:04;4.10;83.25
68746;SHT31;65497;45.454;11.064;2022-12-07T02:02:41;4.07;83.27
68746;SHT31;65497;45.454;11.064;2022-12-07T02:05:20;4.00;83.27
68746;SHT31;65497;45.454;11.064;2022-12-07T02:07:55;3.96;83.53
68746;SHT31;65497;45.454;11.064;2022-12-07T02:10:31;3.97;83.57
68746;SHT31;65497;45.454;11.064;2022-12-07T02:13:05;4.01;83.29
68746;SHT31;65497;45.454;11.064;2022-12-07T02:15:44;4.12;83.23
68746;SHT31;65497;45.454;11.064;2022-12-07T02:18:42;4.17;83.05
68746;SHT31;65497;45.454;11.064;2022-12-07T02:21:32;4.19;82.97
68746;SHT31;65497;45.454;11.064;2022-12-07T02:24:16;4.20;82.79
68746;SHT31;65497;45.454;11.064;2022-12-07T02:27:10;4.16;82.85
68746;SHT31;65497;45.454;11.064;2022-12-07T02:43:35;3.82;83.09
68746;SHT31;65497;45.454;11.064;2022-12-07T02:46:14;3.81;83.40
68746;SHT31;65497;45.454;11.064;2022-12-07T02:48:54;3.79;83.22
68746;SHT31;65497;45.454;11.064;2022-12-07T02:51:30;3.78;83.29
68746;SHT31;65497;45.454;11.064;2022-12-07T02:54:09;3.79;83.16
68746;SHT31;65497;45.454;11.064;2022-12-07T02:56:46;3.80;82.93
68746;SHT31;65497;45.454;11.064;2022-12-07T02:59:29;3.87;83.02
68746;SHT31;65497;45.454;11.064;2022-12-07T03:02:20;3.97;82.89
68746;SHT31;65497;45.454;11.064;2022-12-07T03:05:07;3.97;82.73
68746;SHT31;65497;45.454;11.064;2022-12-07T03:08:00;3.99;82.79
68746;SHT31;65497;45.454;11.064;2022-12-07T03:10:43;4.04;82.55
68746;SHT31;65497;45.454;11.064;2022-12-07T03:13:28;4.13;81.48
68746;SHT31;65497;45.454;11.064;2022-12-07T03:16:10;4.18;81.02
68746;SHT31;65497;45.454;11.064;2022-12-07T03:18:49;4.22;80.85
68746;SHT31;65497;45.454;11.064;2022-12-07T03:21:29;4.16;80.39
68746;SHT31;65497;45.454;11.064;2022-12-07T03:24:08;4.02;80.16
68746;SHT31;65497;45.454;11.064;2022-12-07T03:26:46;3.86;80.39
68746;SHT31;65497;45.454;11.064;2022-12-07T03:29:24;3.71;80.31
68746;SHT31;65497;45.454;11.064;2022-12-07T03:32:04;3.54;81.00
68746;SHT31;65497;45.454;11.064;2022-12-07T03:34:44;3.46;81.01
68746;SHT31;65497;45.454;11.064;2022-12-07T03:37:23;3.45;81.24
68746;SHT31;65497;45.454;11.064;2022-12-07T03:40:06;3.36;81.03
68746;SHT31;65497;45.454;11.064;2022-12-07T03:42:46;3.22;81.48
68746;SHT31;65497;45.454;11.064;2022-12-07T03:45:20;3.15;81.97
68746;SHT31;65497;45.454;11.064;2022-12-07T03:48:02;3.02;82.52
68746;SHT31;65497;45.454;11.064;2022-12-07T03:50:44;3.00;83.16
68746;SHT31;65497;45.454;11.064;2022-12-07T03:53:29;2.98;83.25
68746;SHT31;65497;45.454;11.064;2022-12-07T03:56:08;3.01;83.15
68746;SHT31;65497;45.454;11.064;2022-12-07T03:58:43;3.01;83.26
68746;SHT31;65497;45.454;11.064;2022-12-07T04:01:18;3.02;82.95
68746;SHT31;65497;45.454;11.064;2022-12-07T04:03:51;3.01;82.83
68746;SHT31;65497;45.454;11.064;2022-12-07T04:06:24;3.06;83.09
68746;SHT31;65497;45.454;11.064;2022-12-07T04:08:57;3.14;83.05
68746;SHT31;65497;45.454;11.064;2022-12-07T04:11:29;3.19;83.02
68746;SHT31;65497;45.454;11.064;2022-12-07T04:14:02;3.23;83.00
68746;SHT31;65497;45.454;11.064;2022-12-07T04:16:51;3.25;82.94
68746;SHT31;65497;45.454;11.064;2022-12-07T04:19:27;3.30;82.98
68746;SHT31;65497;45.454;11.064;2022-12-07T04:22:03;3.40;82.51
68746;SHT31;65497;45.454;11.064;2022-12-07T04:24:36;3.45;82.24
68746;SHT31;65497;45.454;11.064;2022-12-07T04:27:09;3.50;82.35
68746;SHT31;65497;45.454;11.064;2022-12-07T04:29:42;3.58;81.75
68746;SHT31;65497;45.454;11.064;2022-12-07T04:32:16;3.53;81.31
68746;SHT31;65497;45.454;11.064;2022-12-07T04:34:49;3.43;81.24
68746;SHT31;65497;45.454;11.064;2022-12-07T04:37:23;3.36;81.25
68746;SHT31;65497;45.454;11.064;2022-12-07T04:39:56;3.40;81.35
68746;SHT31;65497;45.454;11.064;2022-12-07T04:42:29;3.44;80.89
68746;SHT31;65497;45.454;11.064;2022-12-07T04:45:02;3.42;80.85
68746;SHT31;65497;45.454;11.064;2022-12-07T04:47:38;3.47;80.68
68746;SHT31;65497;45.454;11.064;2022-12-07T04:50:11;3.51;80.30
68746;SHT31;65497;45.454;11.064;2022-12-07T04:52:43;3.44;80.20
68746;SHT31;65497;45.454;11.064;2022-12-07T04:55:16;3.34;79.98
68746;SHT31;65497;45.454;11.064;2022-12-07T04:57:49;3.18;80.32
68746;SHT31;65497;45.454;11.064;2022-12-07T05:00:22;3.08;80.57
68746;SHT31;65497;45.454;11.064;2022-12-07T05:02:55;3.02;81.10
68746;SHT31;65497;45.454;11.064;2022-12-07T05:05:28;3.05;81.42
68746;SHT31;65497;45.454;11.064;2022-12-07T05:08:01;3.02;81.22
68746;SHT31;65497;45.454;11.064;2022-12-07T05:10:34;2.91;81.28
68746;SHT31;65497;45.454;11.064;2022-12-07T05:13:07;2.83;81.64
68746;SHT31;65497;45.454;11.064;2022-12-07T05:15:40;2.76;81.92
68746;SHT31;65497;45.454;11.064;2022-12-07T05:18:13;2.68;82.17
68746;SHT31;65497;45.454;11.064;2022-12-07T05:20:46;2.64;82.28
68746;SHT31;65497;45.454;11.064;2022-12-07T05:23:19;2.60;82.52
68746;SHT31;65497;45.454;11.064;2022-12-07T05:25:52;2.53;82.63
68746;SHT31;65497;45.454;11.064;2022-12-07T05:28:24;2.47;82.85
68746;SHT31;65497;45.454;11.064;2022-12-07T05:30:57;2.43;83.05
68746;SHT31;65497;45.454;11.064;2022-12-07T05:33:31;2.44;83.46
68746;SHT31;65497;45.454;11.064;2022-12-07T05:36:04;2.43;83.50
68746;SHT31;65497;45.454;11.064;2022-12-07T05:38:37;2.42;83.90
68746;SHT31;65497;45.454;11.064;2022-12-07T05:41:11;2.42;83.85
68746;SHT31;65497;45.454;11.064;2022-12-07T05:44:05;2.42;83.70
68746;SHT31;65497;45.454;11.064;2022-12-07T05:46:38;2.41;83.76
68746;SHT31;65497;45.454;11.064;2022-12-07T05:49:11;2.43;83.88
68746;SHT31;65497;45.454;11.064;2022-12-07T05:51:43;2.46;83.90
68746;SHT31;65497;45.454;11.064;2022-12-07T05:54:16;2.50;83.97
68746;SHT31;65497;45.454;11.064;2022-12-07T05:56:49;2.54;84.13
68746;SHT31;65497;45.454;11.064;2022-12-07T05:59:22;2.57;84.13
68746;SHT31;65497;45.454;11.064;2022-12-07T06:01:56;2.58;84.16
68746;SHT31;65497;45.454;11.064;2022-12-07T06:04:31;2.59;84.05
68746;SHT31;65497;45.454;11.064;2022-12-07T06:07:06;2.65;84.20
68746;SHT31;65497;45.454;11.064;2022-12-07T06:09:40;2.70;84.08
68746;SHT31;65497;45.454;11.064;2022-12-07T06:12:14;2.67;83.70
68746;SHT31;65497;45.454;11.064;2022-12-07T06:15:03;2.60;83.53
68746;SHT31;65497;45.454;11.064;2022-12-07T06:17:38;2.60;84.03
68746;SHT31;65497;45.454;11.064;2022-12-07T06:20:11;2.60;84.02
68746;SHT31;65497;45.454;11.064;2022-12-07T06:22:43;2.59;84.13
68746;SHT31;65497;45.454;11.064;2022-12-07T06:25:16;2.56;84.17
68746;SHT31;65497;45.454;11.064;2022-12-07T06:27:49;2.52;84.08
68746;SHT31;65497;45.454;11.064;2022-12-07T06:30:23;2.47;84.04
68746;SHT31;65497;45.454;11.064;2022-12-07T06:32:56;2.50;84.06
68746;SHT31;65497;45.454;11.064;2022-12-07T06:35:28;2.52;83.85
68746;SHT31;65497;45.454;11.064;2022-12-07T06:38:02;2.52;83.49
68746;SHT31;65497;45.454;11.064;2022-12-07T06:40:35;2.49;83.34
68746;SHT31;65497;45.454;11.064;2022-12-07T06:43:07;2.48;83.19
68746;SHT31;65497;45.454;11.064;2022-12-07T06:45:41;2.46;83.17
68746;SHT31;65497;45.454;11.064;2022-12-07T06:48:14;2.53;83.42
68746;SHT31;65497;45.454;11.064;2022-12-07T06:50:47;2.66;83.39
68746;SHT31;65497;45.454;11.064;2022-12-07T06:53:22;2.78;82.81
68746;SHT31;65497;45.454;11.064;2022-12-07T06:55:54;2.89;82.43
68746;SHT31;65497;45.454;11.064;2022-12-07T06:58:27;2.98;81.73
68746;SHT31;65497;45.454;11.064;2022-12-07T07:01:00;3.01;81.15
68746;SHT31;65497;45.454;11.064;2022-12-07T07:03:37;2.99;81.10
68746;SHT31;65497;45.454;11.064;2022-12-07T07:06:10;2.99;80.89
68746;SHT31;65497;45.454;11.064;2022-12-07T07:08:44;2.92;80.65
68746;SHT31;65497;45.454;11.064;2022-12-07T07:11:17;2.80;80.93
68746;SHT31;65497;45.454;11.064;2022-12-07T07:13:50;2.71;81.10
68746;SHT31;65497;45.454;11.064;2022-12-07T07:16:25;2.63;81.26
68746;SHT31;65497;45.454;11.064;2022-12-07T07:18:58;2.57;81.46
68746;SHT31;65497;45.454;11.064;2022-12-07T07:21:31;2.56;81.47
68746;SHT31;65497;45.454;11.064;2022-12-07T07:24:06;2.54;81.71
68746;SHT31;65497;45.454;11.064;2022-12-07T07:26:39;2.53;81.87
68746;SHT31;65497;45.454;11.064;2022-12-07T07:29:12;2.52;81.84
68746;SHT31;65497;45.454;11.064;2022-12-07T07:31:45;2.53;81.96
68746;SHT31;65497;45.454;11.064;2022-12-07T07:34:18;2.63;81.92
68746;SHT31;65497;45.454;11.064;2022-12-07T07:36:51;2.87;81.52
68746;SHT31;65497;45.454;11.064;2022-12-07T07:39:24;3.46;80.62
68746;SHT31;65497;45.454;11.064;2022-12-07T07:41:57;4.40;78.62
68746;SHT31;65497;45.454;11.064;2022-12-07T07:44:32;5.32;76.61
68746;SHT31;65497;45.454;11.064;2022-12-07T07:47:06;5.90;75.04
68746;SHT31;65497;45.454;11.064;2022-12-07T07:49:39;6.27;73.37
68746;SHT31;65497;45.454;11.064;2022-12-07T07:52:15;6.52;72.14
68746;SHT31;65497;45.454;11.064;2022-12-07T07:54:47;6.59;71.79
68746;SHT31;65497;45.454;11.064;2022-12-07T07:57:20;6.54;71.88
68746;SHT31;65497;45.454;11.064;2022-12-07T07:59:52;6.20;71.21
68746;SHT31;65497;45.454;11.064;2022-12-07T08:02:26;5.85;71.72
68746;SHT31;65497;45.454;11.064;2022-12-07T08:04:59;5.68;72.55
68746;SHT31;65497;45.454;11.064;2022-12-07T08:07:32;5.53;72.27
68746;SHT31;65497;45.454;11.064;2022-12-07T08:10:06;5.59;72.27
68746;SHT31;65497;45.454;11.064;2022-12-07T08:12:41;5.73;72.07
68746;SHT31;65497;45.454;11.064;2022-12-07T08:15:32;6.19;71.99
68746;SHT31;65497;45.454;11.064;2022-12-07T08:18:08;6.93;70.80
68746;SHT31;65497;45.454;11.064;2022-12-07T08:20:41;7.77;68.90
68746;SHT31;65497;45.454;11.064;2022-12-07T08:23:14;8.73;67.20
68746;SHT31;65497;45.454;11.064;2022-12-07T08:25:54;9.90;64.85
68746;SHT31;65497;45.454;11.064;2022-12-07T08:28:31;10.76;61.92
68746;SHT31;65497;45.454;11.064;2022-12-07T08:31:04;10.98;60.86
68746;SHT31;65497;45.454;11.064;2022-12-07T08:33:40;11.67;60.23
68746;SHT31;65497;45.454;11.064;2022-12-07T08:36:15;12.39;58.04
68746;SHT31;65497;45.454;11.064;2022-12-07T08:38:49;12.98;56.73
68746;SHT31;65497;45.454;11.064;2022-12-07T08:41:42;13.64;54.35
68746;SHT31;65497;45.454;11.064;2022-12-07T08:44:15;14.21;54.06
68746;SHT31;65497;45.454;11.064;2022-12-07T08:46:49;14.77;53.09
68746;SHT31;65497;45.454;11.064;2022-12-07T08:49:27;15.52;51.31
68746;SHT31;65497;45.454;11.064;2022-12-07T08:52:05;16.08;48.77
68746;SHT31;65497;45.454;11.064;2022-12-07T08:54:38;16.06;47.92
68746;SHT31;65497;45.454;11.064;2022-12-07T08:57:13;16.17;47.59
68746;SHT31;65497;45.454;11.064;2022-12-07T08:59:45;16.50;47.06
68746;SHT31;65497;45.454;11.064;2022-12-07T09:02:18;16.61;46.04
68746;SHT31;65497;45.454;11.064;2022-12-07T09:04:51;16.80;46.34
68746;SHT31;65497;45.454;11.064;2022-12-07T09:07:23;16.96;45.03
68746;SHT31;65497;45.454;11.064;2022-12-07T09:10:00;16.94;45.54
68746;SHT31;65497;45.454;11.064;2022-12-07T09:12:34;17.30;45.80
68746;SHT31;65497;45.454;11.064;2022-12-07T09:15:08;17.48;45.34
68746;SHT31;65497;45.454;11.064;2022-12-07T09:17:41;16.60;46.07
68746;SHT31;65497;45.454;11.064;2022-12-07T09:20:14;15.77;47.17
68746;SHT31;65497;45.454;11.064;2022-12-07T09:22:54;15.11;48.33
68746;SHT31;65497;45.454;11.064;2022-12-07T09:25:27;14.14;49.73
68746;SHT31;65497;45.454;11.064;2022-12-07T09:28:00;13.27;51.64
68746;SHT31;65497;45.454;11.064;2022-12-07T09:30:32;12.55;53.32
68746;SHT31;65497;45.454;11.064;2022-12-07T09:33:26;11.84;55.31
68746;SHT31;65497;45.454;11.064;2022-12-07T09:35:58;11.41;56.86
68746;SHT31;65497;45.454;11.064;2022-12-07T09:38:32;11.11;57.73
68746;SHT31;65497;45.454;11.064;2022-12-07T09:41:06;10.69;58.87
68746;SHT31;65497;45.454;11.064;2022-12-07T09:43:39;10.47;59.61
68746;SHT31;65497;45.454;11.064;2022-12-07T09:46:14;10.48;60.23
68746;SHT31;65497;45.454;11.064;2022-12-07T09:48:50;11.56;58.18
68746;SHT31;65497;45.454;11.064;2022-12-07T09:51:23;12.43;56.22
68746;SHT31;65497;45.454;11.064;2022-12-07T09:53:56;13.13;54.97
68746;SHT31;65497;45.454;11.064;2022-12-07T09:56:30;13.79;54.10
68746;SHT31;65497;45.454;11.064;2022-12-07T09:59:04;14.60;51.84
68746;SHT31;65497;45.454;11.064;2022-12-07T10:01:42;15.39;51.06
68746;SHT31;65497;45.454;11.064;2022-12-07T10:04:18;16.32;49.84
68746;SHT31;65497;45.454;11.064;2022-12-07T10:06:53;16.99;47.94
68746;SHT31;65497;45.454;11.064;2022-12-07T10:09:26;17.50;46.64
68746;SHT31;65497;45.454;11.064;2022-12-07T10:12:04;17.88;45.44
68746;SHT31;65497;45.454;11.064;2022-12-07T10:14:52;18.08;44.59
68746;SHT31;65497;45.454;11.064;2022-12-07T10:17:39;18.27;44.10
68746;SHT31;65497;45.454;11.064;2022-12-07T10:20:23;18.64;44.28
68746;SHT31;65497;45.454;11.064;2022-12-07T10:22:59;19.08;43.26
68746;SHT31;65497;45.454;11.064;2022-12-07T10:25:36;19.13;42.24
68746;SHT31;65497;45.454;11.064;2022-12-07T10:28:12;19.38;41.75
68746;SHT31;65497;45.454;11.064;2022-12-07T10:30:48;19.62;41.71
68746;SHT31;65497;45.454;11.064;2022-12-07T10:33:31;19.87;41.52
68746;SHT31;65497;45.454;11.064;2022-12-07T10:36:18;19.94;40.82
68746;SHT31;65497;45.454;11.064;2022-12-07T10:38:58;19.96;40.72
68746;SHT31;65497;45.454;11.064;2022-12-07T10:41:52;19.96;40.36
68746;SHT31;65497;45.454;11.064;2022-12-07T10:44:28;20.03;40.06
68746;SHT31;65497;45.454;11.064;2022-12-07T10:47:05;19.94;39.62
68746;SHT31;65497;45.454;11.064;2022-12-07T10:56:32;20.09;39.71
68746;SHT31;65497;45.454;11.064;2022-12-07T10:59:39;20.36;39.06
68746;SHT31;65497;45.454;11.064;2022-12-07T11:02:35;20.36;39.01
68746;SHT31;65497;45.454;11.064;2022-12-07T11:05:38;20.51;39.16
68746;SHT31;65497;45.454;11.064;2022-12-07T11:08:20;20.68;38.76
68746;SHT31;65497;45.454;11.064;2022-12-07T11:11:12;20.63;38.66
68746;SHT31;65497;45.454;11.064;2022-12-07T11:13:55;20.61;38.83
68746;SHT31;65497;45.454;11.064;2022-12-07T11:16:49;20.64;38.78
68746;SHT31;65497;45.454;11.064;2022-12-07T11:19:42;20.66;38.92
68746;SHT31;65497;45.454;11.064;2022-12-07T11:22:33;20.66;38.62
68746;SHT31;65497;45.454;11.064;2022-12-07T11:25:17;20.50;38.38
68746;SHT31;65497;45.454;11.064;2022-12-07T11:28:01;20.38;39.30
68746;SHT31;65497;45.454;11.064;2022-12-07T11:30:54;20.27;38.62
68746;SHT31;65497;45.454;11.064;2022-12-07T11:33:39;20.20;39.31
68746;SHT31;65497;45.454;11.064;2022-12-07T11:36:29;20.26;39.00
68746;SHT31;65497;45.454;11.064;2022-12-07T11:39:12;20.19;39.55
68746;SHT31;65497;45.454;11.064;2022-12-07T11:41:57;20.26;39.69
68746;SHT31;65497;45.454;11.064;2022-12-07T11:44:44;20.42;39.02
68746;SHT31;65497;45.454;11.064;2022-12-07T11:47:25;20.57;38.98
68746;SHT31;65497;45.454;11.064;2022-12-07T11:50:14;20.74;38.91
68746;SHT31;65497;45.454;11.064;2022-12-07T11:52:57;20.84;37.99
68746;SHT31;65497;45.454;11.064;2022-12-07T11:55:39;20.62;38.37
68746;SHT31;65497;45.454;11.064;2022-12-07T11:58:27;20.72;38.45
68746;SHT31;65497;45.454;11.064;2022-12-07T12:01:21;20.94;37.44
68746;SHT31;65497;45.454;11.064;2022-12-07T12:04:13;20.77;38.33
68746;SHT31;65497;45.454;11.064;2022-12-07T12:07:00;20.90;38.36
68746;SHT31;65497;45.454;11.064;2022-12-07T12:09:55;21.05;37.72
68746;SHT31;65497;45.454;11.064;2022-12-07T12:16:04;21.59;36.57
68746;SHT31;65497;45.454;11.064;2022-12-07T12:19:14;21.91;36.41
68746;SHT31;65497;45.454;11.064;2022-12-07T12:21:59;22.20;35.85
68746;SHT31;65497;45.454;11.064;2022-12-07T12:24:43;22.55;35.72
68746;SHT31;65497;45.454;11.064;2022-12-07T12:27:21;22.81;34.67
68746;SHT31;65497;45.454;11.064;2022-12-07T12:30:01;22.68;34.71
68746;SHT31;65497;45.454;11.064;2022-12-07T12:32:52;22.88;34.98
68746;SHT31;65497;45.454;11.064;2022-12-07T12:35:36;23.16;34.85
68746;SHT31;65497;45.454;11.064;2022-12-07T12:38:23;23.31;34.81
68746;SHT31;65497;45.454;11.064;2022-12-07T12:41:02;23.33;34.01
68746;SHT31;65497;45.454;11.064;2022-12-07T12:43:45;23.17;33.86
68746;SHT31;65497;45.454;11.064;2022-12-07T12:52:57;22.78;34.40
68746;SHT31;65497;45.454;11.064;2022-12-07T12:56:06;22.87;34.17
68746;SHT31;65497;45.454;11.064;2022-12-07T13:01:58;22.96;33.57
68746;SHT31;65497;45.454;11.064;2022-12-07T13:04:52;22.69;34.31
68746;SHT31;65497;45.454;11.064;2022-12-07T13:10:41;23.04;34.07
68746;SHT31;65497;45.454;11.064;2022-12-07T13:13:35;23.22;33.72
68746;SHT31;65497;45.454;11.064;2022-12-07T13:22:48;21.34;35.65
68746;SHT31;65497;45.454;11.064;2022-12-07T13:25:35;21.44;36.09
68746;SHT31;65497;45.454;11.064;2022-12-07T13:28:18;21.77;35.38
68746;SHT31;65497;45.454;11.064;2022-12-07T13:31:01;21.39;35.65
68746;SHT31;65497;45.454;11.064;2022-12-07T13:33:45;20.92;36.05
68746;SHT31;65497;45.454;11.064;2022-12-07T13:36:20;20.95;35.98
68746;SHT31;65497;45.454;11.064;2022-12-07T13:38:56;20.76;36.07
68746;SHT31;65497;45.454;11.064;2022-12-07T13:41:41;20.50;36.43
68746;SHT31;65497;45.454;11.064;2022-12-07T13:44:18;20.30;37.20
68746;SHT31;65497;45.454;11.064;2022-12-07T13:46:57;20.40;36.28
68746;SHT31;65497;45.454;11.064;2022-12-07T13:49:46;19.89;36.80
68746;SHT31;65497;45.454;11.064;2022-12-07T13:52:21;19.40;37.70
68746;SHT31;65497;45.454;11.064;2022-12-07T13:54:57;18.76;38.57
68746;SHT31;65497;45.454;11.064;2022-12-07T13:57:44;18.39;39.29
68746;SHT31;65497;45.454;11.064;2022-12-07T14:00:21;18.03;39.86
68746;SHT31;65497;45.454;11.064;2022-12-07T14:02:57;17.76;40.74
68746;SHT31;65497;45.454;11.064;2022-12-07T14:05:33;17.41;41.35
68746;SHT31;65497;45.454;11.064;2022-12-07T14:08:22;16.98;42.21
68746;SHT31;65497;45.454;11.064;2022-12-07T14:10:58;16.54;42.93
68746;SHT31;65497;45.454;11.064;2022-12-07T14:13:32;16.32;43.67
68746;SHT31;65497;45.454;11.064;2022-12-07T14:16:18;16.15;43.94
68746;SHT31;65497;45.454;11.064;2022-12-07T14:19:00;15.84;44.70
68746;SHT31;65497;45.454;11.064;2022-12-07T14:22:07;15.63;45.07
68746;SHT31;65497;45.454;11.064;2022-12-07T14:25:11;15.43;45.89
68746;SHT31;65497;45.454;11.064;2022-12-07T14:27:52;15.17;46.46
68746;SHT31;65497;45.454;11.064;2022-12-07T14:30:28;14.73;48.42
68746;SHT31;65497;45.454;11.064;2022-12-07T14:33:03;14.40;50.07
68746;SHT31;65497;45.454;11.064;2022-12-07T14:35:39;14.13;51.17
68746;SHT31;65497;45.454;11.064;2022-12-07T14:38:11;13.88;51.96
68746;SHT31;65497;45.454;11.064;2022-12-07T14:40:46;13.66;53.00
68746;SHT31;65497;45.454;11.064;2022-12-07T14:43:19;13.39;53.92
68746;SHT31;65497;45.454;11.064;2022-12-07T14:45:52;13.16;54.52
68746;SHT31;65497;45.454;11.064;2022-12-07T14:48:24;12.96;55.09
68746;SHT31;65497;45.454;11.064;2022-12-07T14:51:17;12.73;55.90
68746;SHT31;65497;45.454;11.064;2022-12-07T14:54:11;12.55;56.54
68746;SHT31;65497;45.454;11.064;2022-12-07T14:56:48;12.47;57.06
68746;SHT31;65497;45.454;11.064;2022-12-07T14:59:20;12.37;57.69
68746;SHT31;65497;45.454;11.064;2022-12-07T15:01:53;12.23;58.31
68746;SHT31;65497;45.454;11.064;2022-12-07T15:04:26;12.05;58.95
68746;SHT31;65497;45.454;11.064;2022-12-07T15:06:59;11.91;59.58
68746;SHT31;65497;45.454;11.064;2022-12-07T15:09:34;11.64;60.36
68746;SHT31;65497;45.454;11.064;2022-12-07T15:12:07;11.41;60.89
68746;SHT31;65497;45.454;11.064;2022-12-07T15:14:41;11.30;61.28
68746;SHT31;65497;45.454;11.064;2022-12-07T15:17:15;11.08;61.85
68746;SHT31;65497;45.454;11.064;2022-12-07T15:19:59;10.85;62.52
68746;SHT31;65497;45.454;11.064;2022-12-07T15:22:33;10.59;63.44
68746;SHT31;65497;45.454;11.064;2022-12-07T15:25:06;10.40;63.92
68746;SHT31;65497;45.454;11.064;2022-12-07T15:27:44;10.34;64.15
68746;SHT31;65497;45.454;11.064;2022-12-07T15:30:17;10.20;64.57
68746;SHT31;65497;45.454;11.064;2022-12-07T15:32:54;10.01;64.90
68746;SHT31;65497;45.454;11.064;2022-12-07T15:35:27;9.90;65.18
68746;SHT31;65497;45.454;11.064;2022-12-07T15:37:59;9.91;65.39
68746;SHT31;65497;45.454;11.064;2022-12-07T15:40:33;9.80;65.78
68746;SHT31;65497;45.454;11.064;2022-12-07T15:43:07;9.66;66.05
68746;SHT31;65497;45.454;11.064;2022-12-07T15:45:54;9.57;66.33
68746;SHT31;65497;45.454;11.064;2022-12-07T15:48:28;9.50;66.93
68746;SHT31;65497;45.454;11.064;2022-12-07T15:51:04;9.38;67.30
68746;SHT31;65497;45.454;11.064;2022-12-07T15:53:38;9.30;67.39
68746;SHT31;65497;45.454;11.064;2022-12-07T15:56:11;9.24;67.46
68746;SHT31;65497;45.454;11.064;2022-12-07T15:58:44;9.20;67.91
68746;SHT31;65497;45.454;11.064;2022-12-07T16:01:17;9.12;68.12
68746;SHT31;65497;45.454;11.064;2022-12-07T16:03:50;8.96;68.33
68746;SHT31;65497;45.454;11.064;2022-12-07T16:06:23;8.85;68.88
68746;SHT31;65497;45.454;11.064;2022-12-07T16:08:55;8.75;68.97
68746;SHT31;65497;45.454;11.064;2022-12-07T16:11:28;8.65;69.18
68746;SHT31;65497;45.454;11.064;2022-12-07T16:14:01;8.59;69.31
68746;SHT31;65497;45.454;11.064;2022-12-07T16:16:34;8.58;69.22
68746;SHT31;65497;45.454;11.064;2022-12-07T16:19:08;8.68;69.03
68746;SHT31;65497;45.454;11.064;2022-12-07T16:21:40;8.76;68.74
68746;SHT31;65497;45.454;11.064;2022-12-07T16:24:13;8.81;68.60
68746;SHT31;65497;45.454;11.064;2022-12-07T16:26:46;8.82;68.51
68746;SHT31;65497;45.454;11.064;2022-12-07T16:29:19;8.79;68.68
68746;SHT31;65497;45.454;11.064;2022-12-07T16:31:53;8.77;68.60
68746;SHT31;65497;45.454;11.064;2022-12-07T16:34:25;8.71;68.34
68746;SHT31;65497;45.454;11.064;2022-12-07T16:36:58;8.65;68.19
68746;SHT31;65497;45.454;11.064;2022-12-07T16:39:33;8.63;68.23
68746;SHT31;65497;45.454;11.064;2022-12-07T16:42:06;8.70;67.90
68746;SHT31;65497;45.454;11.064;2022-12-07T16:44:38;8.71;67.44
68746;SHT31;65497;45.454;11.064;2022-12-07T16:47:11;8.71;67.11
68746;SHT31;65497;45.454;11.064;2022-12-07T16:49:43;8.66;67.01
68746;SHT31;65497;45.454;11.064;2022-12-07T16:52:16;8.55;67.16
68746;SHT31;65497;45.454;11.064;2022-12-07T16:54:50;8.42;67.48
68746;SHT31;65497;45.454;11.064;2022-12-07T16:57:22;8.38;67.41
68746;SHT31;65497;45.454;11.064;2022-12-07T16:59:55;8.34;67.39
68746;SHT31;65497;45.454;11.064;2022-12-07T17:02:27;8.32;67.41
68746;SHT31;65497;45.454;11.064;2022-12-07T17:05:00;8.33;67.30
68746;SHT31;65497;45.454;11.064;2022-12-07T17:07:33;8.34;67.10
68746;SHT31;65497;45.454;11.064;2022-12-07T17:10:07;8.33;66.99
68746;SHT31;65497;45.454;11.064;2022-12-07T17:12:41;8.24;66.84